createdAt,value
2024-04-22T00:02:18.444Z,98746.23
2024-04-22T00:04:46.636Z,98750.01
2024-04-22T00:07:13.915Z,98746.15
2024-04-22T00:09:41.214Z,98752.00
2024-04-22T00:12:08.450Z,98752.81
2024-04-22T00:14:35.640Z,98754.44
2024-04-22T00:17:03.459Z,98752.58
2024-04-22T00:19:30.974Z,98753.45
2024-04-22T00:21:58.318Z,98752.30
2024-04-22T00:24:25.637Z,98753.77
2024-04-22T00:26:52.893Z,98756.08
2024-04-22T00:29:20.111Z,98758.92
2024-04-22T00:31:47.426Z,98764.05
2024-04-22T00:34:14.775Z,98771.66
2024-04-22T00:36:42.116Z,98777.04
2024-04-22T00:39:10.114Z,98778.38
2024-04-22T00:41:37.391Z,98783.83
2024-04-22T00:44:04.829Z,98786.31
2024-04-22T00:46:32.127Z,98790.59
2024-04-22T00:48:59.438Z,98797.29
2024-04-22T00:51:26.693Z,98803.70
2024-04-22T00:53:53.907Z,98803.11
2024-04-22T00:56:21.161Z,98806.48
2024-04-22T00:58:48.665Z,98804.20
2024-04-22T01:01:18.632Z,98800.55
2024-04-22T01:03:45.984Z,98800.51
2024-04-22T01:06:13.463Z,98800.80
2024-04-22T01:08:40.754Z,98809.59
2024-04-22T01:11:08.097Z,98812.42
2024-04-22T01:13:35.531Z,98816.05
2024-04-22T01:16:02.912Z,98819.87
2024-04-22T01:18:30.267Z,98823.95
2024-04-22T01:20:57.588Z,98825.48
2024-04-22T01:23:24.884Z,98832.52
2024-04-22T01:25:55.373Z,98834.90
2024-04-22T01:28:22.655Z,98843.02
2024-04-22T01:30:50.696Z,98851.80
2024-04-22T01:33:18.061Z,98852.52
2024-04-22T01:35:45.419Z,98859.42
2024-04-22T01:38:13.211Z,98863.09
2024-04-22T01:40:40.508Z,98869.58
2024-04-22T01:43:07.862Z,98872.09
2024-04-22T01:45:35.112Z,98874.75
2024-04-22T01:48:02.441Z,98875.98
2024-04-22T01:50:29.866Z,98887.23
2024-04-22T01:52:57.666Z,98897.29
2024-04-22T01:55:24.990Z,98894.18
2024-04-22T01:57:53.100Z,98894.98
2024-04-22T02:00:20.437Z,98898.84
2024-04-22T02:02:47.876Z,98906.19
2024-04-22T02:05:15.494Z,98912.21
2024-04-22T02:07:43.872Z,98914.16
2024-04-22T02:10:21.469Z,98917.88
2024-04-22T02:12:52.426Z,98923.67
2024-04-22T02:15:19.702Z,98925.79
2024-04-22T02:17:47.157Z,98926.83
2024-04-22T02:20:14.704Z,98932.69
2024-04-22T02:22:42.049Z,98940.32
2024-04-22T02:25:09.386Z,98943.91
2024-04-22T02:27:36.725Z,98951.16
2024-04-22T02:30:04.457Z,98954.02
2024-04-22T02:32:31.868Z,98954.58
2024-04-22T02:34:59.284Z,98956.56
2024-04-22T02:37:26.699Z,98961.81
2024-04-22T02:39:53.962Z,98968.17
2024-04-22T02:42:21.295Z,98969.52
2024-04-22T02:44:48.634Z,98974.15
2024-04-22T02:47:15.910Z,98972.13
2024-04-22T02:49:43.237Z,98976.45
2024-04-22T02:52:10.572Z,98978.73
2024-04-22T02:54:37.740Z,98984.48
2024-04-22T02:57:05.743Z,98993.13
2024-04-22T02:59:32.981Z,98988.20
2024-04-22T03:02:00.342Z,98994.49
2024-04-22T03:04:27.639Z,98995.05
2024-04-22T03:06:55.007Z,99000.80
2024-04-22T03:09:22.554Z,99005.02
2024-04-22T03:11:49.877Z,99005.05
2024-04-22T03:14:17.106Z,99008.96
2024-04-22T03:16:44.707Z,99013.28
2024-04-22T03:19:12.277Z,99026.21
2024-04-22T03:21:39.530Z,99032.36
2024-04-22T03:24:07.117Z,99034.08
2024-04-22T03:26:34.437Z,99044.17
2024-04-22T03:29:01.695Z,99041.50
2024-04-22T03:31:32.500Z,99047.94
2024-04-22T03:34:00.609Z,99055.70
2024-04-22T03:36:27.881Z,99055.09
2024-04-22T03:38:56.608Z,99055.13
2024-04-22T03:41:23.999Z,99063.67
2024-04-22T03:43:51.247Z,99067.67
2024-04-22T03:46:37.549Z,99068.70
2024-04-22T03:49:23.821Z,99072.61
2024-04-22T03:51:51.217Z,99072.29
2024-04-22T03:54:18.570Z,99072.27
2024-04-22T03:56:45.760Z,99079.53
2024-04-22T03:59:13.071Z,99073.36
2024-04-22T04:01:40.490Z,99084.41
2024-04-22T04:04:08.073Z,99081.27
2024-04-22T04:06:35.426Z,99081.78
2024-04-22T04:09:02.802Z,99082.34
2024-04-22T04:11:37.670Z,99089.73
2024-04-22T04:14:05.695Z,99085.86
2024-04-22T04:16:33.128Z,99098.73
2024-04-22T04:19:00.771Z,99103.25
2024-04-22T04:21:28.064Z,99104.54
2024-04-22T04:23:55.215Z,99111.11
2024-04-22T04:26:22.530Z,99112.11
2024-04-22T04:28:49.930Z,99126.10
2024-04-22T04:31:19.279Z,99135.58
2024-04-22T04:33:46.697Z,99137.89
2024-04-22T04:36:13.993Z,99139.90
2024-04-22T04:38:41.218Z,99149.27
2024-04-22T04:41:08.470Z,99152.11
2024-04-22T04:43:35.808Z,99157.91
2024-04-22T04:46:03.174Z,99163.25
2024-04-22T04:48:30.502Z,99167.52
2024-04-22T04:50:57.722Z,99170.30
2024-04-22T04:53:25.054Z,99169.89
2024-04-22T04:55:52.456Z,99175.20
2024-04-22T04:58:22.062Z,99174.48
2024-04-22T05:00:51.527Z,99178.55
2024-04-22T05:03:18.975Z,99179.94
2024-04-22T05:05:46.443Z,99175.41
2024-04-22T05:08:13.695Z,99181.69
2024-04-22T05:10:40.986Z,99184.49
2024-04-22T05:13:08.904Z,99187.93
2024-04-22T05:15:36.165Z,99196.04
2024-04-22T05:18:03.680Z,99198.14
2024-04-22T05:20:31.317Z,99207.01
2024-04-22T05:22:58.855Z,99205.72
2024-04-22T05:25:26.281Z,99208.95
2024-04-22T05:27:54.150Z,99220.17
2024-04-22T05:30:22.592Z,99225.73
2024-04-22T05:32:49.959Z,99223.98
2024-04-22T05:35:36.149Z,99231.16
2024-04-22T05:38:03.552Z,99240.55
2024-04-22T05:40:30.935Z,99239.13
2024-04-22T05:42:58.930Z,99245.76
2024-04-22T05:45:26.183Z,99253.20
2024-04-22T05:47:53.700Z,99257.06
2024-04-22T05:50:21.214Z,99261.77
2024-04-22T05:52:48.553Z,99268.85
2024-04-22T05:55:15.811Z,99270.16
2024-04-22T05:57:44.209Z,99279.98
2024-04-22T06:00:12.922Z,99285.00
2024-04-22T06:02:40.368Z,99289.21
2024-04-22T06:05:07.799Z,99296.24
2024-04-22T06:07:35.292Z,99302.60
2024-04-22T06:10:02.716Z,99309.99
2024-04-22T06:12:30.063Z,99323.28
2024-04-22T06:14:58.079Z,99325.42
2024-04-22T06:17:25.734Z,99335.42
2024-04-22T06:19:53.175Z,99340.94
2024-04-22T06:22:20.701Z,99349.69
2024-04-22T06:24:49.435Z,99353.65
2024-04-22T06:27:17.854Z,99367.95
2024-04-22T06:29:45.274Z,99371.55
2024-04-22T06:32:12.803Z,99374.05
2024-04-22T06:34:40.364Z,99376.30
2024-04-22T06:37:07.782Z,99385.23
2024-04-22T06:39:35.178Z,99391.98
2024-04-22T06:42:02.674Z,99411.65
2024-04-22T06:44:30.145Z,99415.70
2024-04-22T06:46:59.924Z,99430.09
2024-04-22T06:49:29.701Z,99430.67
2024-04-22T06:51:58.588Z,99434.92
2024-04-22T06:54:26.185Z,99439.75
2024-04-22T06:56:53.566Z,99444.32
2024-04-22T06:59:21.138Z,99459.81
2024-04-22T07:01:48.611Z,99472.02
2024-04-22T07:04:16.784Z,99477.83
2024-04-22T07:06:47.754Z,99474.38
2024-04-22T07:09:17.866Z,99487.10
2024-04-22T07:11:45.290Z,99479.79
2024-04-22T07:14:12.815Z,99482.32
2024-04-22T07:16:41.177Z,99491.15
2024-04-22T07:19:09.229Z,99490.60
2024-04-22T07:21:36.676Z,99497.52
2024-04-22T07:24:04.393Z,99504.88
2024-04-22T07:26:32.020Z,99513.71
2024-04-22T07:28:59.875Z,99529.48
2024-04-22T07:31:30.179Z,99525.08
2024-04-22T07:33:58.189Z,99532.17
2024-04-22T07:36:37.013Z,99534.52
2024-04-22T07:39:09.461Z,99539.41
2024-04-22T07:43:52.452Z,99552.06
2024-04-22T07:46:24.474Z,99557.33
2024-04-22T07:48:51.782Z,99563.48
2024-04-22T07:51:18.643Z,99563.94
2024-04-22T07:53:46.230Z,99572.21
2024-04-22T07:56:16.926Z,99573.43
2024-04-22T07:58:47.524Z,99583.98
2024-04-22T08:01:15.147Z,99581.09
2024-04-22T08:03:42.709Z,99594.84
2024-04-22T08:06:18.555Z,99602.21
2024-04-22T08:08:45.672Z,99604.83
2024-04-22T08:11:13.144Z,99607.59
2024-04-22T08:13:40.121Z,99603.66
2024-04-22T08:16:07.050Z,99604.70
2024-04-22T08:18:34.278Z,99617.17
2024-04-22T08:21:04.031Z,99616.54
2024-04-22T08:23:33.776Z,99622.06
2024-04-22T08:26:00.924Z,99622.92
2024-04-22T08:28:28.093Z,99616.27
2024-04-22T08:31:02.336Z,99624.41
2024-04-22T08:33:29.442Z,99623.70
2024-04-22T08:35:59.282Z,99626.06
2024-04-22T08:38:26.304Z,99630.63
2024-04-22T08:40:53.543Z,99641.48
2024-04-22T08:43:24.734Z,99653.23
2024-04-22T08:45:53.439Z,99656.74
2024-04-22T08:48:20.815Z,99657.14
2024-04-22T08:50:51.113Z,99661.08
2024-04-22T08:53:18.165Z,99661.19
2024-04-22T08:55:45.173Z,99667.10
2024-04-22T08:58:12.195Z,99672.46
2024-04-22T09:00:39.825Z,99677.39
2024-04-22T09:03:07.464Z,99680.63
2024-04-22T09:05:35.332Z,99685.23
2024-04-22T09:08:07.757Z,99686.48
2024-04-22T09:11:06.304Z,99687.00
2024-04-22T09:13:24.609Z,99694.20
2024-04-22T09:16:00.875Z,99696.86
2024-04-22T09:18:30.187Z,99704.11
2024-04-22T09:21:07.072Z,99703.13
2024-04-22T09:23:37.170Z,99712.27
2024-04-22T09:26:05.561Z,99715.16
2024-04-22T09:28:36.851Z,99716.37
2024-04-22T09:31:06.050Z,99720.20
2024-04-22T09:33:39.161Z,99723.61
2024-04-22T09:36:06.900Z,99714.02
2024-04-22T09:38:43.874Z,99715.70
2024-04-22T09:41:18.230Z,99717.63
2024-04-22T09:43:50.088Z,99713.09
2024-04-22T09:46:22.911Z,99712.59
2024-04-22T09:48:50.596Z,99716.30
2024-04-22T09:51:17.720Z,99720.48
2024-04-22T09:53:47.748Z,99722.05
2024-04-22T09:56:29.611Z,99724.21
2024-04-22T09:59:00.368Z,99722.02
2024-04-22T10:01:27.240Z,99724.74
2024-04-22T10:03:58.202Z,99721.00
2024-04-22T10:06:25.675Z,99722.72
2024-04-22T10:08:53.416Z,99731.56
2024-04-22T10:11:20.757Z,99733.45
2024-04-22T10:13:48.609Z,99740.70
2024-04-22T10:16:15.655Z,99743.45
2024-04-22T10:18:49.243Z,99747.64
2024-04-22T10:21:19.983Z,99752.44
2024-04-22T10:23:48.251Z,99756.79
2024-04-22T10:26:17.213Z,99758.92
2024-04-22T10:28:46.859Z,99768.30
2024-04-22T10:31:18.931Z,99770.32
2024-04-22T10:33:45.837Z,99773.95
2024-04-22T10:36:12.783Z,99771.73
2024-04-22T10:38:39.539Z,99772.24
2024-04-22T10:41:07.101Z,99778.70
2024-04-22T10:43:36.339Z,99782.41
2024-04-22T10:46:03.599Z,99785.73
2024-04-22T10:48:31.325Z,99789.08
2024-04-22T10:50:59.342Z,99790.56
2024-04-22T10:53:28.962Z,99789.55
2024-04-22T10:56:01.222Z,99782.87
2024-04-22T10:58:30.819Z,99783.02
2024-04-22T11:01:03.693Z,99777.26
2024-04-22T11:03:34.713Z,99776.12
2024-04-22T11:06:07.840Z,99774.11
2024-04-22T11:08:34.974Z,99776.83
2024-04-22T11:11:16.338Z,99787.16
2024-04-22T11:13:44.429Z,99788.33
2024-04-22T11:16:14.867Z,99791.58
2024-04-22T11:22:49.317Z,99805.98
2024-04-22T11:25:33.801Z,99804.38
2024-04-22T11:28:05.005Z,99806.85
2024-04-22T11:30:41.118Z,99802.06
2024-04-22T11:33:26.360Z,99806.33
2024-04-22T11:36:13.558Z,99811.02
2024-04-22T11:38:56.664Z,99811.50
2024-04-22T11:41:37.846Z,99811.80
2024-04-22T11:45:08.486Z,99806.56
2024-04-22T11:47:44.212Z,99807.77
2024-04-22T11:50:19.832Z,99804.95
2024-04-22T11:53:20.889Z,99810.53
2024-04-22T11:56:09.270Z,99817.85
2024-04-22T11:58:37.311Z,99823.36
2024-04-22T12:01:06.338Z,99816.48
2024-04-22T12:03:36.896Z,99819.49
2024-04-22T12:06:04.549Z,99815.61
2024-04-22T12:08:32.540Z,99817.11
2024-04-22T12:11:04.954Z,99814.39
2024-04-22T12:13:32.088Z,99815.80
2024-04-22T12:16:00.030Z,99822.23
2024-04-22T12:18:31.344Z,99823.06
2024-04-22T12:21:02.595Z,99821.00
2024-04-22T12:23:34.730Z,99826.45
2024-04-22T12:26:05.642Z,99827.45
2024-04-22T12:28:35.859Z,99828.16
2024-04-22T12:31:03.018Z,99829.17
2024-04-22T12:33:32.221Z,99831.10
2024-04-22T12:36:02.795Z,99832.83
2024-04-22T12:38:32.778Z,99830.96
2024-04-22T12:44:41.356Z,99834.50
2024-04-22T12:47:27.630Z,99833.95
2024-04-22T12:50:18.740Z,99839.16
2024-04-22T12:52:48.844Z,99844.30
2024-04-22T12:55:17.115Z,99841.41
2024-04-22T12:57:46.858Z,99841.77
2024-04-22T13:00:14.953Z,99845.13
2024-04-22T13:02:45.046Z,99839.78
2024-04-22T13:08:29.254Z,99849.18
2024-04-22T13:10:58.794Z,99851.17
2024-04-22T13:13:30.669Z,99850.09
2024-04-22T13:16:00.940Z,99854.39
2024-04-22T13:18:30.480Z,99859.98
2024-04-22T13:21:00.081Z,99860.70
2024-04-22T13:23:27.731Z,99857.83
2024-04-22T13:25:56.248Z,99855.30
2024-04-22T13:28:24.417Z,99859.52
2024-04-22T13:30:56.355Z,99861.52
2024-04-22T13:33:25.460Z,99857.16
2024-04-22T13:35:53.973Z,99859.65
2024-04-22T13:38:24.061Z,99859.23
2024-04-22T13:41:06.606Z,99866.24
2024-04-22T13:43:39.263Z,99868.63
2024-04-22T14:01:23.850Z,99885.58
2024-04-22T14:08:07.055Z,99886.23
2024-04-22T14:10:36.924Z,99887.30
2024-04-22T14:13:19.833Z,99886.71
2024-04-22T14:15:50.357Z,99891.39
2024-04-22T14:18:24.417Z,99895.36
2024-04-22T14:20:54.182Z,99900.67
2024-04-22T14:23:21.424Z,99900.56
2024-04-22T14:26:00.891Z,99903.55
2024-04-22T14:28:31.179Z,99909.09
2024-04-22T14:30:59.739Z,99905.84
2024-04-22T14:33:28.893Z,99909.86
2024-04-22T14:39:19.976Z,99912.86
2024-04-22T14:41:47.573Z,99913.48
2024-04-22T14:44:15.135Z,99910.97
2024-04-22T14:53:54.475Z,99921.63
2024-04-22T14:56:24.190Z,99917.95
2024-04-22T14:58:52.551Z,99925.35
2024-04-22T15:01:23.879Z,99931.73
2024-04-22T15:03:55.131Z,99932.08
2024-04-22T15:06:51.322Z,99932.51
2024-04-22T15:09:25.101Z,99940.23
2024-04-22T15:11:53.047Z,99940.70
2024-04-22T15:14:24.317Z,99947.75
2024-04-22T15:16:56.508Z,99949.06
2024-04-22T15:19:27.200Z,99955.58
2024-04-22T15:21:55.050Z,99956.52
2024-04-22T15:24:23.407Z,99954.83
2024-04-22T15:26:54.119Z,99955.08
2024-04-22T15:29:22.182Z,99954.40
2024-04-22T15:31:49.649Z,99954.48
2024-04-22T15:34:17.952Z,99960.51
2024-04-22T15:36:46.159Z,99964.55
2024-04-22T15:39:13.595Z,99963.93
2024-04-22T15:41:40.819Z,99964.61
2024-04-22T15:44:10.600Z,99963.04
2024-04-22T15:46:38.202Z,99964.52
2024-04-22T15:49:06.718Z,99964.30
2024-04-22T15:51:34.392Z,99963.88
2024-04-22T15:54:01.662Z,99963.23
2024-04-22T15:56:30.168Z,99969.80
2024-04-22T15:58:57.606Z,99969.16
2024-04-22T16:01:26.716Z,99972.84
2024-04-22T16:03:55.684Z,99973.19
2024-04-22T16:06:23.234Z,99981.58
2024-04-22T16:08:51.964Z,99983.80
2024-04-22T16:11:19.939Z,99984.41
2024-04-22T16:13:47.042Z,99987.55
2024-04-22T16:16:14.127Z,99992.55
2024-04-22T16:18:42.549Z,99994.81
2024-04-22T16:21:15.351Z,100001.64
2024-04-22T16:23:44.588Z,100002.04
2024-04-22T16:26:11.747Z,100004.20
2024-04-22T16:28:39.050Z,100009.63
2024-04-22T16:31:07.656Z,100010.69
2024-04-22T16:33:34.837Z,100007.56
2024-04-22T16:36:02.438Z,100010.27
2024-04-22T16:38:32.695Z,100012.48
2024-04-22T16:40:59.886Z,100014.39
2024-04-22T16:43:30.548Z,100017.48
2024-04-22T16:45:58.092Z,100016.52
2024-04-22T16:48:26.595Z,100016.98
2024-04-22T16:51:01.968Z,100019.27
2024-04-22T16:53:29.527Z,100019.84
2024-04-22T16:55:58.519Z,100019.58
2024-04-22T16:58:39.482Z,100017.95
2024-04-22T17:01:08.613Z,100020.60
2024-04-22T17:03:36.056Z,100020.33
2024-04-22T17:06:04.923Z,100018.44
2024-04-22T17:08:33.342Z,100023.69
2024-04-22T17:11:07.080Z,100027.07
2024-04-22T17:13:36.857Z,100032.05
2024-04-22T17:16:06.169Z,100029.16
2024-04-22T17:18:34.925Z,100032.88
2024-04-22T17:21:03.777Z,100032.33
2024-04-22T17:23:32.409Z,100038.21
2024-04-22T17:25:59.915Z,100041.49
2024-04-22T17:28:27.714Z,100042.25
2024-04-22T17:31:01.888Z,100047.50
2024-04-22T17:33:34.688Z,100045.59
2024-04-22T17:36:03.613Z,100045.23
2024-04-22T17:38:34.474Z,100052.59
2024-04-22T17:41:03.200Z,100052.27
2024-04-22T17:43:38.996Z,100053.48
2024-04-22T17:46:07.720Z,100057.73
2024-04-22T17:48:37.354Z,100060.20
2024-04-22T17:51:18.254Z,100062.38
2024-04-22T17:53:48.028Z,100064.36
2024-04-22T17:56:16.135Z,100067.00
2024-04-22T17:58:43.907Z,100067.13
2024-04-22T18:01:11.913Z,100068.52
2024-04-22T18:03:43.916Z,100076.38
2024-04-22T18:06:14.350Z,100075.16
2024-04-22T18:08:42.440Z,100077.35
2024-04-22T18:11:09.975Z,100079.89
2024-04-22T18:13:39.677Z,100079.17
2024-04-22T18:16:07.502Z,100082.30
2024-04-22T18:18:37.809Z,100082.03
2024-04-22T18:21:10.776Z,100085.80
2024-04-22T18:23:40.961Z,100084.08
2024-04-22T18:26:14.826Z,100083.48
2024-04-22T18:28:47.992Z,100088.09
2024-04-22T18:31:21.207Z,100089.58
2024-04-22T18:33:51.824Z,100089.55
2024-04-22T18:36:21.234Z,100091.66
2024-04-22T18:38:52.330Z,100095.77
2024-04-22T18:41:23.987Z,100094.46
2024-04-22T18:43:59.366Z,100096.55
2024-04-22T18:46:29.276Z,100097.40
2024-04-22T18:48:57.860Z,100095.29
2024-04-22T18:51:30.337Z,100096.81
2024-04-22T18:54:02.570Z,100093.29
2024-04-22T18:56:42.816Z,100099.50
2024-04-22T18:59:42.572Z,100098.52
2024-04-22T19:02:12.780Z,100102.41
2024-04-22T19:04:50.742Z,100103.35
2024-04-22T19:07:20.450Z,100103.55
2024-04-22T19:09:52.479Z,100108.59
2024-04-22T19:12:20.544Z,100107.01
2024-04-22T19:14:49.036Z,100106.40
2024-04-22T19:17:16.834Z,100109.89
2024-04-22T19:19:47.363Z,100107.45
2024-04-22T19:22:20.361Z,100107.86
2024-04-22T19:24:47.961Z,100105.93
2024-04-22T19:27:16.000Z,100108.01
2024-04-22T19:29:48.788Z,100106.76
2024-04-22T19:32:17.341Z,100108.41
2024-04-22T19:34:47.307Z,100109.98
2024-04-22T19:37:15.289Z,100117.11
2024-04-22T19:39:45.206Z,100115.15
2024-04-22T19:42:16.714Z,100117.17
2024-04-22T19:44:45.082Z,100122.95
2024-04-22T19:47:13.848Z,100123.59
2024-04-22T19:49:42.213Z,100122.05
2024-04-22T19:52:10.099Z,100125.56
2024-04-22T19:54:38.184Z,100123.55
2024-04-22T19:57:07.546Z,100122.80
2024-04-22T20:01:09.386Z,100124.52
2024-04-22T20:03:37.967Z,100125.94
2024-04-22T20:06:06.224Z,100124.93
2024-04-22T20:08:34.050Z,100124.69
2024-04-22T20:11:05.950Z,100124.98
2024-04-22T20:13:33.997Z,100126.23
2024-04-22T20:16:16.470Z,100127.46
2024-04-22T20:18:56.682Z,100131.27
2024-04-22T20:21:25.040Z,100131.42
2024-04-22T20:23:54.397Z,100132.40
2024-04-22T20:26:22.836Z,100131.98
2024-04-22T20:28:51.584Z,100136.27
2024-04-22T20:31:22.910Z,100136.75
2024-04-22T20:33:51.005Z,100137.58
2024-04-22T20:36:21.291Z,100142.27
2024-04-22T20:38:49.057Z,100145.23
2024-04-22T20:41:17.365Z,100153.31
2024-04-22T20:43:45.116Z,100155.98
2024-04-22T20:46:13.382Z,100157.67
2024-04-22T20:48:41.188Z,100160.14
2024-04-22T20:51:09.878Z,100158.35
2024-04-22T20:53:37.478Z,100157.31
2024-04-22T20:56:05.816Z,100156.73
2024-04-22T20:58:35.096Z,100160.70
2024-04-22T21:01:08.280Z,100163.04
2024-04-22T21:03:36.277Z,100166.89
2024-04-22T21:06:04.834Z,100169.42
2024-04-22T21:08:32.885Z,100170.68
2024-04-22T21:11:02.328Z,100178.01
2024-04-22T21:13:46.113Z,100173.59
2024-04-22T21:16:13.779Z,100176.52
2024-04-22T21:18:41.363Z,100176.27
2024-04-22T21:21:08.984Z,100179.13
2024-04-22T21:23:36.507Z,100179.42
2024-04-22T21:26:04.589Z,100183.20
2024-04-22T21:28:32.462Z,100188.60
2024-04-22T21:31:02.013Z,100191.77
2024-04-22T21:33:43.699Z,100190.23
2024-04-22T21:36:16.880Z,100195.64
2024-04-22T21:38:45.915Z,100193.71
2024-04-22T21:41:13.370Z,100193.32
2024-04-22T21:43:41.367Z,100194.56
2024-04-22T21:46:08.947Z,100196.55
2024-04-22T21:48:36.370Z,100199.86
2024-04-22T21:51:03.741Z,100206.58
2024-04-22T21:53:31.050Z,100200.15
2024-04-22T21:56:08.782Z,100201.90
2024-04-22T21:59:13.934Z,100201.70
2024-04-22T22:02:18.950Z,100206.64
2024-04-22T22:05:26.029Z,100210.64
2024-04-22T22:07:53.368Z,100211.40
2024-04-22T22:13:05.732Z,100206.91
2024-04-22T22:15:32.945Z,100205.14
2024-04-22T22:18:00.989Z,100203.62
2024-04-22T22:20:28.427Z,100204.72
2024-04-22T22:22:55.739Z,100204.26
2024-04-22T22:25:23.298Z,100211.09
2024-04-22T22:27:52.276Z,100212.54
2024-04-22T22:30:19.890Z,100209.98
2024-04-22T22:32:47.218Z,100215.40
2024-04-22T22:35:14.769Z,100220.49
2024-04-22T22:37:42.216Z,100218.58
2024-04-22T22:40:11.592Z,100218.47
2024-04-22T22:42:38.832Z,100216.86
2024-04-22T22:45:06.377Z,100215.05
2024-04-22T22:47:34.145Z,100212.81
2024-04-22T22:50:01.644Z,100217.43
2024-04-22T22:55:14.133Z,100220.59
2024-04-22T22:57:41.451Z,100220.80
2024-04-22T23:00:09.087Z,100219.40
2024-04-22T23:02:36.389Z,100219.22
2024-04-22T23:05:15.733Z,100215.43
2024-04-22T23:07:43.087Z,100217.32
2024-04-22T23:10:10.433Z,100215.69
2024-04-22T23:12:37.788Z,100212.39
2024-04-22T23:15:05.898Z,100213.24
2024-04-22T23:17:33.247Z,100211.39
2024-04-22T23:20:00.730Z,100211.27
2024-04-22T23:22:28.189Z,100213.39
2024-04-22T23:24:55.452Z,100211.76
2024-04-22T23:27:22.771Z,100214.66
2024-04-22T23:29:50.150Z,100216.83
2024-04-22T23:32:17.501Z,100215.61
2024-04-22T23:34:44.839Z,100218.14
2024-04-22T23:37:12.278Z,100221.77
2024-04-22T23:39:39.814Z,100222.77
2024-04-22T23:42:07.722Z,100222.29
2024-04-22T23:44:35.036Z,100221.58
2024-04-22T23:47:02.449Z,100217.84
2024-04-22T23:49:30.095Z,100217.06
2024-04-22T23:51:57.478Z,100217.84
2024-04-22T23:54:24.782Z,100213.84
2024-04-22T23:56:59.473Z,100214.25
2024-04-22T23:59:26.916Z,100216.32
